sensor_id;sensor_type;location;lat;lon;timestamp;temperature;humidity
8664;DHT22;4369;47.842;13.096;2023-12-28T00:01:44;3.40;1.00
8664;DHT22;4369;47.842;13.096;2023-12-28T00:04:11;3.40;1.00
8664;DHT22;4369;47.842;13.096;2023-12-28T00:06:40;3.30;1.00
8664;DHT22;4369;47.842;13.096;2023-12-28T00:09:07;3.20;1.00
8664;DHT22;4369;47.842;13.096;2023-12-28T00:11:35;3.10;99.90
8664;DHT22;4369;47.842;13.096;2023-12-28T00:14:02;3.10;99.90
8664;DHT22;4369;47.842;13.096;2023-12-28T00:16:30;3.10;99.90
8664;DHT22;4369;47.842;13.096;2023-12-28T00:18:59;3.00;99.90
8664;DHT22;4369;47.842;13.096;2023-12-28T00:21:27;3.00;1.00
8664;DHT22;4369;47.842;13.096;2023-12-28T00:23:56;3.00;99.90
8664;DHT22;4369;47.842;13.096;2023-12-28T00:26:23;3.00;99.90
8664;DHT22;4369;47.842;13.096;2023-12-28T00:28:50;3.00;99.90
8664;DHT22;4369;47.842;13.096;2023-12-28T00:31:17;3.00;1.00
8664;DHT22;4369;47.842;13.096;2023-12-28T00:33:44;3.00;99.90
8664;DHT22;4369;47.842;13.096;2023-12-28T00:36:11;3.00;1.00
8664;DHT22;4369;47.842;13.096;2023-12-28T00:38:38;2.90;1.00
8664;DHT22;4369;47.842;13.096;2023-12-28T00:41:06;2.90;29.20
8664;DHT22;4369;47.842;13.096;2023-12-28T00:43:33;2.90;99.90
8664;DHT22;4369;47.842;13.096;2023-12-28T00:46:00;2.90;99.90
8664;DHT22;4369;47.842;13.096;2023-12-28T00:48:27;2.90;99.90
8664;DHT22;4369;47.842;13.096;2023-12-28T00:50:54;2.80;99.90
8664;DHT22;4369;47.842;13.096;2023-12-28T00:53:24;2.80;1.00
8664;DHT22;4369;47.842;13.096;2023-12-28T00:55:51;2.80;99.90
8664;DHT22;4369;47.842;13.096;2023-12-28T00:58:20;2.80;1.00
8664;DHT22;4369;47.842;13.096;2023-12-28T01:00:47;2.80;99.90
8664;DHT22;4369;47.842;13.096;2023-12-28T01:03:14;2.70;99.90
8664;DHT22;4369;47.842;13.096;2023-12-28T01:05:41;2.70;1.00
8664;DHT22;4369;47.842;13.096;2023-12-28T01:08:07;2.70;1.00
8664;DHT22;4369;47.842;13.096;2023-12-28T01:10:34;2.70;99.90
8664;DHT22;4369;47.842;13.096;2023-12-28T01:13:02;2.70;99.90
8664;DHT22;4369;47.842;13.096;2023-12-28T01:15:30;2.80;42.30
8664;DHT22;4369;47.842;13.096;2023-12-28T01:17:57;2.80;1.00
8664;DHT22;4369;47.842;13.096;2023-12-28T01:20:24;2.80;99.90
8664;DHT22;4369;47.842;13.096;2023-12-28T01:22:51;2.70;99.90
8664;DHT22;4369;47.842;13.096;2023-12-28T01:25:18;2.80;99.90
8664;DHT22;4369;47.842;13.096;2023-12-28T01:27:45;2.70;99.90
8664;DHT22;4369;47.842;13.096;2023-12-28T01:30:12;2.70;99.90
8664;DHT22;4369;47.842;13.096;2023-12-28T01:32:40;2.80;99.90
8664;DHT22;4369;47.842;13.096;2023-12-28T01:35:07;2.80;1.00
8664;DHT22;4369;47.842;13.096;2023-12-28T01:37:34;2.80;43.10
8664;DHT22;4369;47.842;13.096;2023-12-28T01:40:01;2.70;5.30
8664;DHT22;4369;47.842;13.096;2023-12-28T01:42:29;2.70;99.90
8664;DHT22;4369;47.842;13.096;2023-12-28T01:44:57;2.60;99.90
8664;DHT22;4369;47.842;13.096;2023-12-28T01:47:24;2.60;1.00
8664;DHT22;4369;47.842;13.096;2023-12-28T01:49:53;2.60;99.90
8664;DHT22;4369;47.842;13.096;2023-12-28T01:52:20;2.60;99.90
8664;DHT22;4369;47.842;13.096;2023-12-28T01:54:48;2.60;99.90
8664;DHT22;4369;47.842;13.096;2023-12-28T01:57:16;2.60;99.90
8664;DHT22;4369;47.842;13.096;2023-12-28T01:59:43;2.70;99.90
8664;DHT22;4369;47.842;13.096;2023-12-28T02:02:11;2.80;99.90
8664;DHT22;4369;47.842;13.096;2023-12-28T02:04:39;2.80;1.00
8664;DHT22;4369;47.842;13.096;2023-12-28T02:07:08;2.80;1.00
8664;DHT22;4369;47.842;13.096;2023-12-28T02:09:35;2.70;1.00
8664;DHT22;4369;47.842;13.096;2023-12-28T02:12:02;2.70;1.00
8664;DHT22;4369;47.842;13.096;2023-12-28T02:14:29;2.70;1.00
8664;DHT22;4369;47.842;13.096;2023-12-28T02:17:09;2.70;1.00
8664;DHT22;4369;47.842;13.096;2023-12-28T02:19:42;2.70;1.00
8664;DHT22;4369;47.842;13.096;2023-12-28T02:22:13;2.70;1.00
8664;DHT22;4369;47.842;13.096;2023-12-28T02:25:05;2.60;99.90
8664;DHT22;4369;47.842;13.096;2023-12-28T02:27:34;2.50;1.00
8664;DHT22;4369;47.842;13.096;2023-12-28T02:30:02;2.50;1.00
8664;DHT22;4369;47.842;13.096;2023-12-28T02:32:40;2.50;1.00
8664;DHT22;4369;47.842;13.096;2023-12-28T02:35:16;2.50;99.90
8664;DHT22;4369;47.842;13.096;2023-12-28T02:37:44;2.50;1.00
8664;DHT22;4369;47.842;13.096;2023-12-28T02:40:16;2.40;1.00
8664;DHT22;4369;47.842;13.096;2023-12-28T02:42:43;2.40;1.00
8664;DHT22;4369;47.842;13.096;2023-12-28T02:45:10;2.40;71.10
8664;DHT22;4369;47.842;13.096;2023-12-28T02:47:37;2.40;95.30
8664;DHT22;4369;47.842;13.096;2023-12-28T02:50:05;2.40;1.00
8664;DHT22;4369;47.842;13.096;2023-12-28T02:52:33;2.50;1.00
8664;DHT22;4369;47.842;13.096;2023-12-28T02:54:59;2.50;1.00
8664;DHT22;4369;47.842;13.096;2023-12-28T02:57:28;2.50;1.00
8664;DHT22;4369;47.842;13.096;2023-12-28T02:59:55;2.40;1.00
8664;DHT22;4369;47.842;13.096;2023-12-28T03:02:27;2.50;1.00
8664;DHT22;4369;47.842;13.096;2023-12-28T03:04:54;2.50;1.00
8664;DHT22;4369;47.842;13.096;2023-12-28T03:07:21;2.40;1.00
8664;DHT22;4369;47.842;13.096;2023-12-28T03:09:48;2.40;1.00
8664;DHT22;4369;47.842;13.096;2023-12-28T03:12:15;2.30;1.00
8664;DHT22;4369;47.842;13.096;2023-12-28T03:14:43;2.30;1.00
8664;DHT22;4369;47.842;13.096;2023-12-28T03:17:10;2.30;1.00
8664;DHT22;4369;47.842;13.096;2023-12-28T03:19:38;2.30;1.00
8664;DHT22;4369;47.842;13.096;2023-12-28T03:22:05;2.30;1.00
8664;DHT22;4369;47.842;13.096;2023-12-28T03:24:32;2.30;1.00
8664;DHT22;4369;47.842;13.096;2023-12-28T03:26:59;2.30;1.00
8664;DHT22;4369;47.842;13.096;2023-12-28T03:29:27;2.20;1.00
8664;DHT22;4369;47.842;13.096;2023-12-28T03:31:56;2.10;99.90
8664;DHT22;4369;47.842;13.096;2023-12-28T03:34:23;2.20;99.90
8664;DHT22;4369;47.842;13.096;2023-12-28T03:36:52;2.10;1.00
8664;DHT22;4369;47.842;13.096;2023-12-28T03:39:19;2.10;1.00
8664;DHT22;4369;47.842;13.096;2023-12-28T03:41:46;2.10;1.00
8664;DHT22;4369;47.842;13.096;2023-12-28T03:44:13;2.20;99.90
8664;DHT22;4369;47.842;13.096;2023-12-28T03:46:40;2.20;99.90
8664;DHT22;4369;47.842;13.096;2023-12-28T03:49:09;2.10;1.00
8664;DHT22;4369;47.842;13.096;2023-12-28T03:51:36;2.20;1.00
8664;DHT22;4369;47.842;13.096;2023-12-28T03:54:03;2.10;1.00
8664;DHT22;4369;47.842;13.096;2023-12-28T03:56:29;2.20;1.00
8664;DHT22;4369;47.842;13.096;2023-12-28T03:58:58;2.20;99.90
8664;DHT22;4369;47.842;13.096;2023-12-28T04:01:25;2.20;99.90
8664;DHT22;4369;47.842;13.096;2023-12-28T04:03:52;2.30;99.90
8664;DHT22;4369;47.842;13.096;2023-12-28T04:06:20;2.30;1.00
8664;DHT22;4369;47.842;13.096;2023-12-28T04:08:47;2.20;1.00
8664;DHT22;4369;47.842;13.096;2023-12-28T04:11:14;2.20;1.00
8664;DHT22;4369;47.842;13.096;2023-12-28T04:13:41;2.20;1.00
8664;DHT22;4369;47.842;13.096;2023-12-28T04:16:12;2.20;1.00
8664;DHT22;4369;47.842;13.096;2023-12-28T04:18:39;2.30;1.00
8664;DHT22;4369;47.842;13.096;2023-12-28T04:21:08;2.30;1.00
8664;DHT22;4369;47.842;13.096;2023-12-28T04:23:38;2.30;1.00
8664;DHT22;4369;47.842;13.096;2023-12-28T04:26:05;2.30;1.00
8664;DHT22;4369;47.842;13.096;2023-12-28T04:28:32;2.20;1.00
8664;DHT22;4369;47.842;13.096;2023-12-28T04:31:02;2.20;1.00
8664;DHT22;4369;47.842;13.096;2023-12-28T04:33:29;2.20;1.00
8664;DHT22;4369;47.842;13.096;2023-12-28T04:35:56;2.10;1.00
8664;DHT22;4369;47.842;13.096;2023-12-28T04:38:23;2.20;1.00
8664;DHT22;4369;47.842;13.096;2023-12-28T04:40:51;2.10;1.00
8664;DHT22;4369;47.842;13.096;2023-12-28T04:43:18;2.20;1.00
8664;DHT22;4369;47.842;13.096;2023-12-28T04:45:46;2.20;1.00
8664;DHT22;4369;47.842;13.096;2023-12-28T04:48:15;2.10;1.00
8664;DHT22;4369;47.842;13.096;2023-12-28T04:50:47;2.10;1.00
8664;DHT22;4369;47.842;13.096;2023-12-28T04:53:15;1.90;1.00
8664;DHT22;4369;47.842;13.096;2023-12-28T04:55:42;2.00;1.00
8664;DHT22;4369;47.842;13.096;2023-12-28T04:58:12;2.00;1.00
8664;DHT22;4369;47.842;13.096;2023-12-28T05:00:39;2.10;1.00
8664;DHT22;4369;47.842;13.096;2023-12-28T05:03:06;2.00;1.00
8664;DHT22;4369;47.842;13.096;2023-12-28T05:05:33;1.90;1.00
8664;DHT22;4369;47.842;13.096;2023-12-28T05:08:00;2.00;99.90
8664;DHT22;4369;47.842;13.096;2023-12-28T05:10:27;2.00;1.00
8664;DHT22;4369;47.842;13.096;2023-12-28T05:12:54;2.00;1.00
8664;DHT22;4369;47.842;13.096;2023-12-28T05:15:22;2.00;1.00
8664;DHT22;4369;47.842;13.096;2023-12-28T05:17:49;1.90;1.00
8664;DHT22;4369;47.842;13.096;2023-12-28T05:20:17;1.90;89.70
8664;DHT22;4369;47.842;13.096;2023-12-28T05:22:44;1.90;99.90
8664;DHT22;4369;47.842;13.096;2023-12-28T05:25:11;1.90;1.00
8664;DHT22;4369;47.842;13.096;2023-12-28T05:27:38;1.90;1.00
8664;DHT22;4369;47.842;13.096;2023-12-28T05:30:08;2.00;99.90
8664;DHT22;4369;47.842;13.096;2023-12-28T05:32:37;2.00;99.90
8664;DHT22;4369;47.842;13.096;2023-12-28T05:35:05;2.00;99.90
8664;DHT22;4369;47.842;13.096;2023-12-28T05:37:32;2.00;99.90
8664;DHT22;4369;47.842;13.096;2023-12-28T05:39:59;2.00;99.90
8664;DHT22;4369;47.842;13.096;2023-12-28T05:42:26;2.00;99.90
8664;DHT22;4369;47.842;13.096;2023-12-28T05:44:53;2.10;56.60
8664;DHT22;4369;47.842;13.096;2023-12-28T05:47:20;2.00;1.00
8664;DHT22;4369;47.842;13.096;2023-12-28T05:49:48;2.00;1.00
8664;DHT22;4369;47.842;13.096;2023-12-28T05:52:15;1.90;1.00
8664;DHT22;4369;47.842;13.096;2023-12-28T05:54:44;1.90;1.00
8664;DHT22;4369;47.842;13.096;2023-12-28T05:57:11;1.90;1.00
8664;DHT22;4369;47.842;13.096;2023-12-28T05:59:38;1.90;1.00
8664;DHT22;4369;47.842;13.096;2023-12-28T06:02:06;1.80;1.00
8664;DHT22;4369;47.842;13.096;2023-12-28T06:04:33;1.80;1.00
8664;DHT22;4369;47.842;13.096;2023-12-28T06:07:03;1.80;99.90
8664;DHT22;4369;47.842;13.096;2023-12-28T06:09:30;1.70;1.00
8664;DHT22;4369;47.842;13.096;2023-12-28T06:11:57;1.70;99.90
8664;DHT22;4369;47.842;13.096;2023-12-28T06:14:24;1.60;99.90
8664;DHT22;4369;47.842;13.096;2023-12-28T06:16:51;1.60;1.00
8664;DHT22;4369;47.842;13.096;2023-12-28T06:19:18;1.70;1.00
8664;DHT22;4369;47.842;13.096;2023-12-28T06:21:45;1.60;1.00
8664;DHT22;4369;47.842;13.096;2023-12-28T06:24:13;1.70;1.00
8664;DHT22;4369;47.842;13.096;2023-12-28T06:26:40;1.70;99.90
8664;DHT22;4369;47.842;13.096;2023-12-28T06:29:08;1.60;99.90
8664;DHT22;4369;47.842;13.096;2023-12-28T06:31:35;1.60;1.00
8664;DHT22;4369;47.842;13.096;2023-12-28T06:34:02;1.70;1.00
8664;DHT22;4369;47.842;13.096;2023-12-28T06:36:29;1.60;1.00
8664;DHT22;4369;47.842;13.096;2023-12-28T06:38:56;1.60;1.00
8664;DHT22;4369;47.842;13.096;2023-12-28T06:41:25;1.70;1.00
8664;DHT22;4369;47.842;13.096;2023-12-28T06:43:52;1.60;1.00
8664;DHT22;4369;47.842;13.096;2023-12-28T06:46:19;1.70;1.00
8664;DHT22;4369;47.842;13.096;2023-12-28T06:48:46;1.60;99.90
8664;DHT22;4369;47.842;13.096;2023-12-28T06:51:16;1.60;1.00
8664;DHT22;4369;47.842;13.096;2023-12-28T06:53:44;1.60;99.90
8664;DHT22;4369;47.842;13.096;2023-12-28T06:56:11;1.70;99.90
8664;DHT22;4369;47.842;13.096;2023-12-28T06:58:39;1.70;99.90
8664;DHT22;4369;47.842;13.096;2023-12-28T07:01:06;1.70;99.90
8664;DHT22;4369;47.842;13.096;2023-12-28T07:03:33;1.70;99.90
8664;DHT22;4369;47.842;13.096;2023-12-28T07:06:01;1.70;1.00
8664;DHT22;4369;47.842;13.096;2023-12-28T07:08:28;1.80;1.00
8664;DHT22;4369;47.842;13.096;2023-12-28T07:10:55;1.80;99.90
8664;DHT22;4369;47.842;13.096;2023-12-28T07:13:22;1.80;1.00
8664;DHT22;4369;47.842;13.096;2023-12-28T07:15:51;1.80;99.90
8664;DHT22;4369;47.842;13.096;2023-12-28T07:18:19;1.90;1.00
8664;DHT22;4369;47.842;13.096;2023-12-28T07:20:46;2.00;99.90
8664;DHT22;4369;47.842;13.096;2023-12-28T07:23:13;2.00;1.00
8664;DHT22;4369;47.842;13.096;2023-12-28T07:25:39;1.90;99.90
8664;DHT22;4369;47.842;13.096;2023-12-28T07:28:06;2.00;1.00
8664;DHT22;4369;47.842;13.096;2023-12-28T07:30:33;2.00;1.00
8664;DHT22;4369;47.842;13.096;2023-12-28T07:33:02;2.00;1.00
8664;DHT22;4369;47.842;13.096;2023-12-28T07:35:29;1.90;1.00
8664;DHT22;4369;47.842;13.096;2023-12-28T07:37:56;1.90;1.00
8664;DHT22;4369;47.842;13.096;2023-12-28T07:40:23;2.00;1.00
8664;DHT22;4369;47.842;13.096;2023-12-28T07:42:49;2.00;99.90
8664;DHT22;4369;47.842;13.096;2023-12-28T07:45:16;2.10;99.90
8664;DHT22;4369;47.842;13.096;2023-12-28T07:47:48;2.10;99.90
8664;DHT22;4369;47.842;13.096;2023-12-28T07:50:17;2.20;99.90
8664;DHT22;4369;47.842;13.096;2023-12-28T07:52:44;2.20;99.90
8664;DHT22;4369;47.842;13.096;2023-12-28T07:55:12;2.20;1.00
8664;DHT22;4369;47.842;13.096;2023-12-28T07:57:39;2.20;1.00
8664;DHT22;4369;47.842;13.096;2023-12-28T08:00:07;2.30;1.00
8664;DHT22;4369;47.842;13.096;2023-12-28T08:02:34;2.30;1.00
8664;DHT22;4369;47.842;13.096;2023-12-28T08:05:02;2.30;1.00
8664;DHT22;4369;47.842;13.096;2023-12-28T08:07:30;2.40;1.00
8664;DHT22;4369;47.842;13.096;2023-12-28T08:09:57;2.30;1.00
8664;DHT22;4369;47.842;13.096;2023-12-28T08:12:24;2.30;1.00
8664;DHT22;4369;47.842;13.096;2023-12-28T08:14:53;2.40;1.00
8664;DHT22;4369;47.842;13.096;2023-12-28T08:17:20;2.40;1.00
8664;DHT22;4369;47.842;13.096;2023-12-28T08:19:47;2.40;1.00
8664;DHT22;4369;47.842;13.096;2023-12-28T08:22:14;2.50;1.00
8664;DHT22;4369;47.842;13.096;2023-12-28T08:24:42;2.50;1.00
8664;DHT22;4369;47.842;13.096;2023-12-28T08:27:10;2.60;1.00
8664;DHT22;4369;47.842;13.096;2023-12-28T08:29:37;2.50;1.00
8664;DHT22;4369;47.842;13.096;2023-12-28T08:32:04;2.60;1.00
8664;DHT22;4369;47.842;13.096;2023-12-28T08:34:31;2.60;1.00
8664;DHT22;4369;47.842;13.096;2023-12-28T08:36:58;2.70;1.00
8664;DHT22;4369;47.842;13.096;2023-12-28T08:39:25;2.70;1.00
8664;DHT22;4369;47.842;13.096;2023-12-28T08:41:53;2.80;1.00
8664;DHT22;4369;47.842;13.096;2023-12-28T08:44:20;2.70;1.00
8664;DHT22;4369;47.842;13.096;2023-12-28T08:46:47;2.70;1.00
8664;DHT22;4369;47.842;13.096;2023-12-28T08:49:14;2.70;1.00
8664;DHT22;4369;47.842;13.096;2023-12-28T08:51:41;2.70;1.00
8664;DHT22;4369;47.842;13.096;2023-12-28T08:54:09;2.70;1.00
8664;DHT22;4369;47.842;13.096;2023-12-28T08:56:36;2.80;1.00
8664;DHT22;4369;47.842;13.096;2023-12-28T08:59:04;2.80;1.00
8664;DHT22;4369;47.842;13.096;2023-12-28T09:01:31;2.90;1.00
8664;DHT22;4369;47.842;13.096;2023-12-28T09:03:58;3.00;1.00
8664;DHT22;4369;47.842;13.096;2023-12-28T09:06:25;3.00;1.00
8664;DHT22;4369;47.842;13.096;2023-12-28T09:08:52;3.10;1.00
8664;DHT22;4369;47.842;13.096;2023-12-28T09:11:20;3.20;1.00
8664;DHT22;4369;47.842;13.096;2023-12-28T09:13:47;3.30;1.00
8664;DHT22;4369;47.842;13.096;2023-12-28T09:16:15;3.30;1.00
8664;DHT22;4369;47.842;13.096;2023-12-28T09:18:43;3.40;1.00
8664;DHT22;4369;47.842;13.096;2023-12-28T09:21:10;3.50;1.00
8664;DHT22;4369;47.842;13.096;2023-12-28T09:23:37;3.60;99.90
8664;DHT22;4369;47.842;13.096;2023-12-28T09:26:06;3.90;72.10
8664;DHT22;4369;47.842;13.096;2023-12-28T09:28:34;4.20;51.80
8664;DHT22;4369;47.842;13.096;2023-12-28T09:31:01;4.70;99.90
8664;DHT22;4369;47.842;13.096;2023-12-28T09:33:30;5.20;50.50
8664;DHT22;4369;47.842;13.096;2023-12-28T09:35:57;5.70;1.00
8664;DHT22;4369;47.842;13.096;2023-12-28T09:38:24;6.10;1.00
8664;DHT22;4369;47.842;13.096;2023-12-28T09:40:53;6.60;1.00
8664;DHT22;4369;47.842;13.096;2023-12-28T09:43:23;7.00;1.00
8664;DHT22;4369;47.842;13.096;2023-12-28T09:45:51;7.50;1.00
8664;DHT22;4369;47.842;13.096;2023-12-28T09:48:19;8.10;1.00
8664;DHT22;4369;47.842;13.096;2023-12-28T09:50:51;8.50;1.00
8664;DHT22;4369;47.842;13.096;2023-12-28T09:53:20;8.90;1.00
8664;DHT22;4369;47.842;13.096;2023-12-28T09:55:48;9.40;1.00
8664;DHT22;4369;47.842;13.096;2023-12-28T09:58:18;10.00;1.00
8664;DHT22;4369;47.842;13.096;2023-12-28T10:00:46;10.70;1.00
8664;DHT22;4369;47.842;13.096;2023-12-28T10:03:13;11.40;1.00
8664;DHT22;4369;47.842;13.096;2023-12-28T10:05:41;11.90;1.00
8664;DHT22;4369;47.842;13.096;2023-12-28T10:08:11;12.80;1.00
8664;DHT22;4369;47.842;13.096;2023-12-28T10:10:39;13.60;1.00
8664;DHT22;4369;47.842;13.096;2023-12-28T10:13:06;14.80;1.00
8664;DHT22;4369;47.842;13.096;2023-12-28T10:15:35;15.90;1.00
8664;DHT22;4369;47.842;13.096;2023-12-28T10:18:03;17.20;1.00
8664;DHT22;4369;47.842;13.096;2023-12-28T10:20:31;18.20;1.00
8664;DHT22;4369;47.842;13.096;2023-12-28T10:22:58;19.60;1.00
8664;DHT22;4369;47.842;13.096;2023-12-28T10:25:27;20.30;1.00
8664;DHT22;4369;47.842;13.096;2023-12-28T10:27:54;21.30;1.00
8664;DHT22;4369;47.842;13.096;2023-12-28T10:30:21;23.00;1.00
8664;DHT22;4369;47.842;13.096;2023-12-28T10:32:48;24.40;1.00
8664;DHT22;4369;47.842;13.096;2023-12-28T10:35:15;25.40;1.00
8664;DHT22;4369;47.842;13.096;2023-12-28T10:37:43;25.50;1.00
8664;DHT22;4369;47.842;13.096;2023-12-28T10:40:12;26.50;1.00
8664;DHT22;4369;47.842;13.096;2023-12-28T10:42:49;27.90;1.00
8664;DHT22;4369;47.842;13.096;2023-12-28T10:45:18;28.90;1.00
8664;DHT22;4369;47.842;13.096;2023-12-28T10:47:54;29.80;1.00
8664;DHT22;4369;47.842;13.096;2023-12-28T10:50:27;31.50;1.00
8664;DHT22;4369;47.842;13.096;2023-12-28T10:53:02;32.70;1.00
8664;DHT22;4369;47.842;13.096;2023-12-28T10:55:40;32.70;1.00
8664;DHT22;4369;47.842;13.096;2023-12-28T10:58:13;31.70;1.00
8664;DHT22;4369;47.842;13.096;2023-12-28T11:00:44;30.40;1.00
8664;DHT22;4369;47.842;13.096;2023-12-28T11:03:18;28.50;1.00
8664;DHT22;4369;47.842;13.096;2023-12-28T11:05:45;28.30;1.00
8664;DHT22;4369;47.842;13.096;2023-12-28T11:08:15;28.90;1.00
8664;DHT22;4369;47.842;13.096;2023-12-28T11:10:42;30.00;1.00
8664;DHT22;4369;47.842;13.096;2023-12-28T11:13:11;31.40;1.00
8664;DHT22;4369;47.842;13.096;2023-12-28T11:15:41;32.50;1.00
8664;DHT22;4369;47.842;13.096;2023-12-28T11:18:09;33.30;1.00
8664;DHT22;4369;47.842;13.096;2023-12-28T11:20:36;33.40;1.00
8664;DHT22;4369;47.842;13.096;2023-12-28T11:23:04;33.40;1.00
8664;DHT22;4369;47.842;13.096;2023-12-28T11:25:32;33.50;1.00
8664;DHT22;4369;47.842;13.096;2023-12-28T11:27:59;33.00;1.00
8664;DHT22;4369;47.842;13.096;2023-12-28T11:30:28;32.50;1.00
8664;DHT22;4369;47.842;13.096;2023-12-28T11:32:56;31.00;1.00
8664;DHT22;4369;47.842;13.096;2023-12-28T11:35:25;30.20;1.00
8664;DHT22;4369;47.842;13.096;2023-12-28T11:37:59;30.00;1.00
8664;DHT22;4369;47.842;13.096;2023-12-28T11:40:28;28.70;1.00
8664;DHT22;4369;47.842;13.096;2023-12-28T11:42:55;26.20;1.00
8664;DHT22;4369;47.842;13.096;2023-12-28T11:45:23;24.70;1.00
8664;DHT22;4369;47.842;13.096;2023-12-28T11:48:00;23.50;1.00
8664;DHT22;4369;47.842;13.096;2023-12-28T11:50:27;22.70;1.00
8664;DHT22;4369;47.842;13.096;2023-12-28T11:52:54;21.60;1.00
8664;DHT22;4369;47.842;13.096;2023-12-28T11:55:22;21.10;1.00
8664;DHT22;4369;47.842;13.096;2023-12-28T11:57:49;20.80;1.00
8664;DHT22;4369;47.842;13.096;2023-12-28T12:00:16;20.30;1.00
8664;DHT22;4369;47.842;13.096;2023-12-28T12:02:45;19.90;1.00
8664;DHT22;4369;47.842;13.096;2023-12-28T12:05:14;20.00;1.00
8664;DHT22;4369;47.842;13.096;2023-12-28T12:07:41;20.00;1.00
8664;DHT22;4369;47.842;13.096;2023-12-28T12:10:14;20.00;1.00
8664;DHT22;4369;47.842;13.096;2023-12-28T12:12:42;20.30;1.00
8664;DHT22;4369;47.842;13.096;2023-12-28T12:15:09;20.10;1.00
8664;DHT22;4369;47.842;13.096;2023-12-28T12:17:37;20.10;1.00
8664;DHT22;4369;47.842;13.096;2023-12-28T12:20:04;20.40;1.00
8664;DHT22;4369;47.842;13.096;2023-12-28T12:22:33;20.50;1.00
8664;DHT22;4369;47.842;13.096;2023-12-28T12:25:02;20.70;1.00
8664;DHT22;4369;47.842;13.096;2023-12-28T12:27:30;20.60;1.00
8664;DHT22;4369;47.842;13.096;2023-12-28T12:29:57;20.40;1.00
8664;DHT22;4369;47.842;13.096;2023-12-28T12:32:25;20.60;1.00
8664;DHT22;4369;47.842;13.096;2023-12-28T12:34:52;21.00;1.00
8664;DHT22;4369;47.842;13.096;2023-12-28T12:37:19;21.00;1.00
8664;DHT22;4369;47.842;13.096;2023-12-28T12:39:47;21.50;1.00
8664;DHT22;4369;47.842;13.096;2023-12-28T12:42:15;21.60;1.00
8664;DHT22;4369;47.842;13.096;2023-12-28T12:44:42;22.40;1.00
8664;DHT22;4369;47.842;13.096;2023-12-28T12:47:09;22.10;1.00
8664;DHT22;4369;47.842;13.096;2023-12-28T12:49:37;21.90;1.00
8664;DHT22;4369;47.842;13.096;2023-12-28T12:52:04;21.90;1.00
8664;DHT22;4369;47.842;13.096;2023-12-28T12:54:33;22.40;1.00
8664;DHT22;4369;47.842;13.096;2023-12-28T12:57:03;22.80;1.00
8664;DHT22;4369;47.842;13.096;2023-12-28T12:59:30;22.50;1.00
8664;DHT22;4369;47.842;13.096;2023-12-28T13:01:57;21.80;1.00
8664;DHT22;4369;47.842;13.096;2023-12-28T13:04:24;21.30;1.00
8664;DHT22;4369;47.842;13.096;2023-12-28T13:06:51;21.40;1.00
8664;DHT22;4369;47.842;13.096;2023-12-28T13:09:18;21.20;1.00
8664;DHT22;4369;47.842;13.096;2023-12-28T13:11:45;20.70;1.00
8664;DHT22;4369;47.842;13.096;2023-12-28T13:14:17;20.50;1.00
8664;DHT22;4369;47.842;13.096;2023-12-28T13:16:43;20.00;1.00
8664;DHT22;4369;47.842;13.096;2023-12-28T13:19:13;19.30;1.00
8664;DHT22;4369;47.842;13.096;2023-12-28T13:21:40;18.60;1.00
8664;DHT22;4369;47.842;13.096;2023-12-28T13:24:08;17.80;1.00
8664;DHT22;4369;47.842;13.096;2023-12-28T13:26:35;17.20;1.00
8664;DHT22;4369;47.842;13.096;2023-12-28T13:29:02;16.70;1.00
8664;DHT22;4369;47.842;13.096;2023-12-28T13:31:31;16.00;1.00
8664;DHT22;4369;47.842;13.096;2023-12-28T13:33:58;15.80;1.00
8664;DHT22;4369;47.842;13.096;2023-12-28T13:36:24;15.70;1.00
8664;DHT22;4369;47.842;13.096;2023-12-28T13:38:54;15.60;1.00
8664;DHT22;4369;47.842;13.096;2023-12-28T13:41:21;15.50;1.00
8664;DHT22;4369;47.842;13.096;2023-12-28T13:43:47;15.40;1.00
8664;DHT22;4369;47.842;13.096;2023-12-28T13:46:14;15.40;1.00
8664;DHT22;4369;47.842;13.096;2023-12-28T13:48:43;15.10;1.00
8664;DHT22;4369;47.842;13.096;2023-12-28T13:51:10;14.90;1.00
8664;DHT22;4369;47.842;13.096;2023-12-28T13:53:37;14.70;1.00
8664;DHT22;4369;47.842;13.096;2023-12-28T13:56:06;14.40;1.00
8664;DHT22;4369;47.842;13.096;2023-12-28T13:58:34;13.80;1.00
8664;DHT22;4369;47.842;13.096;2023-12-28T14:01:01;13.50;1.00
8664;DHT22;4369;47.842;13.096;2023-12-28T14:03:28;13.40;1.00
8664;DHT22;4369;47.842;13.096;2023-12-28T14:05:57;13.40;1.00
8664;DHT22;4369;47.842;13.096;2023-12-28T14:08:24;13.30;1.00
8664;DHT22;4369;47.842;13.096;2023-12-28T14:10:51;13.20;1.00
8664;DHT22;4369;47.842;13.096;2023-12-28T14:13:17;12.90;1.00
8664;DHT22;4369;47.842;13.096;2023-12-28T14:15:45;12.80;1.00
8664;DHT22;4369;47.842;13.096;2023-12-28T14:18:12;12.80;1.00
8664;DHT22;4369;47.842;13.096;2023-12-28T14:20:39;12.70;1.00
8664;DHT22;4369;47.842;13.096;2023-12-28T14:23:08;12.60;1.00
8664;DHT22;4369;47.842;13.096;2023-12-28T14:25:35;12.40;1.00
8664;DHT22;4369;47.842;13.096;2023-12-28T14:28:03;12.30;1.00
8664;DHT22;4369;47.842;13.096;2023-12-28T14:30:31;12.00;1.00
8664;DHT22;4369;47.842;13.096;2023-12-28T14:32:59;11.90;1.00
8664;DHT22;4369;47.842;13.096;2023-12-28T14:35:26;11.80;1.00
8664;DHT22;4369;47.842;13.096;2023-12-28T14:37:53;11.70;1.00
8664;DHT22;4369;47.842;13.096;2023-12-28T14:40:22;11.40;1.00
8664;DHT22;4369;47.842;13.096;2023-12-28T14:42:49;11.30;1.00
8664;DHT22;4369;47.842;13.096;2023-12-28T14:45:16;11.10;1.00
8664;DHT22;4369;47.842;13.096;2023-12-28T14:47:43;11.10;1.00
8664;DHT22;4369;47.842;13.096;2023-12-28T14:50:10;10.90;1.00
8664;DHT22;4369;47.842;13.096;2023-12-28T14:52:38;10.80;1.00
8664;DHT22;4369;47.842;13.096;2023-12-28T14:55:08;10.70;1.00
8664;DHT22;4369;47.842;13.096;2023-12-28T14:57:36;10.60;1.00
8664;DHT22;4369;47.842;13.096;2023-12-28T15:00:05;10.50;1.00
8664;DHT22;4369;47.842;13.096;2023-12-28T15:02:32;10.40;1.00
8664;DHT22;4369;47.842;13.096;2023-12-28T15:05:00;10.30;1.00
8664;DHT22;4369;47.842;13.096;2023-12-28T15:07:27;10.20;1.00
8664;DHT22;4369;47.842;13.096;2023-12-28T15:09:54;10.10;1.00
8664;DHT22;4369;47.842;13.096;2023-12-28T15:12:24;10.00;1.00
8664;DHT22;4369;47.842;13.096;2023-12-28T15:14:53;9.90;1.00
8664;DHT22;4369;47.842;13.096;2023-12-28T15:17:21;9.80;1.00
8664;DHT22;4369;47.842;13.096;2023-12-28T15:19:48;9.70;1.00
8664;DHT22;4369;47.842;13.096;2023-12-28T15:22:16;9.70;1.00
8664;DHT22;4369;47.842;13.096;2023-12-28T15:24:44;9.60;1.00
8664;DHT22;4369;47.842;13.096;2023-12-28T15:27:11;9.50;1.00
8664;DHT22;4369;47.842;13.096;2023-12-28T15:29:38;9.50;1.00
8664;DHT22;4369;47.842;13.096;2023-12-28T15:32:09;9.40;1.00
8664;DHT22;4369;47.842;13.096;2023-12-28T15:34:37;9.30;1.00
8664;DHT22;4369;47.842;13.096;2023-12-28T15:37:04;9.20;1.00
8664;DHT22;4369;47.842;13.096;2023-12-28T15:39:31;9.20;1.00
8664;DHT22;4369;47.842;13.096;2023-12-28T15:41:59;9.00;1.00
8664;DHT22;4369;47.842;13.096;2023-12-28T15:44:26;9.00;1.00
8664;DHT22;4369;47.842;13.096;2023-12-28T15:46:53;9.00;1.00
8664;DHT22;4369;47.842;13.096;2023-12-28T15:49:21;8.90;1.00
8664;DHT22;4369;47.842;13.096;2023-12-28T15:51:48;8.90;1.00
8664;DHT22;4369;47.842;13.096;2023-12-28T15:54:15;8.80;1.00
8664;DHT22;4369;47.842;13.096;2023-12-28T15:56:43;8.80;1.00
8664;DHT22;4369;47.842;13.096;2023-12-28T15:59:09;8.80;1.00
8664;DHT22;4369;47.842;13.096;2023-12-28T16:01:36;8.80;1.00
8664;DHT22;4369;47.842;13.096;2023-12-28T16:04:04;8.80;1.00
8664;DHT22;4369;47.842;13.096;2023-12-28T16:06:32;8.80;1.00
8664;DHT22;4369;47.842;13.096;2023-12-28T16:09:00;8.70;1.00
8664;DHT22;4369;47.842;13.096;2023-12-28T16:11:28;8.70;1.00
8664;DHT22;4369;47.842;13.096;2023-12-28T16:16:31;8.60;1.00